Time;durP1;ratioP1;P1;durP2;ratioP2;P2;SDS_P1;SDS_P2;PMS_P1;PMS_P2;Temp;Humidity;BMP_temperature;BMP_pressure;BME280_temperature;BME280_humidity;BME280_pressure;Samples;Min_cycle;Max_cycle;Signal;HPM_P1;HPM_P2
2022/04/21 00:00:59;;;;;;;37.67;21.98;;;;;;;2.92;79.23;100084.87;4501008;31;20122;-70
2022/04/21 00:03:28;;;;;;;37.50;23.20;;;;;;;2.73;79.82;100082.88;4501058;31;20201;-70
2022/04/21 00:05:55;;;;;;;33.85;22.00;;;;;;;2.63;79.49;100080.13;4501288;31;20555;-70
2022/04/21 00:08:22;;;;;;;39.47;24.02;;;;;;;2.52;82.45;100078.22;4500948;31;20112;-70
2022/04/21 00:10:50;;;;;;;39.10;24.70;;;;;;;2.44;83.19;100075.50;4501002;31;20104;-70
2022/04/21 00:13:17;;;;;;;38.53;22.27;;;;;;;2.37;83.56;100079.72;4501174;31;20344;-70
2022/04/21 00:15:45;;;;;;;33.65;21.62;;;;;;;2.31;84.23;100074.44;4500844;31;20117;-70
2022/04/21 00:18:12;;;;;;;38.58;20.25;;;;;;;2.19;85.04;100071.63;4500865;31;20164;-70
2022/04/21 00:20:39;;;;;;;32.58;21.17;;;;;;;2.13;85.38;100069.78;4500726;31;20747;-70
2022/04/21 00:26:01;;;;;;;33.55;21.35;;;;;;;2.36;83.00;100080.56;4500728;31;20171;-70
2022/04/21 00:28:29;;;;;;;39.75;22.67;;;;;;;2.27;84.91;100083.03;4500769;31;20419;-70
2022/04/21 00:30:57;;;;;;;35.78;21.30;;;;;;;2.09;84.91;100067.13;4500400;31;20480;-70
2022/04/21 00:33:24;;;;;;;33.28;21.37;;;;;;;2.01;86.04;100064.37;4500726;31;20577;-70
2022/04/21 00:35:51;;;;;;;30.70;19.48;;;;;;;2.06;86.40;100064.47;4500595;31;20147;-70
2022/04/21 00:38:18;;;;;;;35.85;21.95;;;;;;;2.03;86.39;100060.09;4500571;31;20092;-70
2022/04/21 00:40:46;;;;;;;35.65;22.33;;;;;;;2.12;87.60;100069.75;4502022;31;20134;-70
2022/04/21 00:43:13;;;;;;;37.65;23.25;;;;;;;2.27;84.73;100066.56;4502638;31;20117;-70
2022/04/21 00:45:40;;;;;;;38.42;23.52;;;;;;;2.28;83.93;100068.31;4502912;31;20110;-70
2022/04/21 00:48:07;;;;;;;37.13;24.30;;;;;;;2.17;85.61;100062.94;4502588;31;20126;-70
2022/04/21 00:50:37;;;;;;;40.60;23.27;;;;;;;2.04;87.83;100063.56;4502574;31;20125;-70
2022/04/21 00:53:07;;;;;;;33.90;21.70;;;;;;;2.06;86.75;100054.94;4502540;31;20142;-70
2022/04/21 00:55:37;;;;;;;33.17;21.35;;;;;;;2.00;87.42;100053.97;4502553;31;20196;-70
2022/04/21 00:58:05;;;;;;;36.13;22.75;;;;;;;1.90;87.73;100053.78;4502450;31;20528;-70
2022/04/21 01:00:32;;;;;;;38.25;21.77;;;;;;;1.90;87.99;100061.59;4502407;31;20104;-70
2022/04/21 01:03:00;;;;;;;37.33;22.92;;;;;;;1.86;88.25;100062.38;4502737;31;20105;-70
2022/04/21 01:05:30;;;;;;;37.53;22.58;;;;;;;1.83;89.54;100061.44;4502418;31;20441;-70
2022/04/21 01:07:59;;;;;;;37.10;23.17;;;;;;;1.77;89.61;100066.56;4502434;31;20527;-70
2022/04/21 01:10:29;;;;;;;35.63;22.02;;;;;;;1.70;90.22;100072.44;4502399;31;20193;-70
2022/04/21 01:12:56;;;;;;;33.65;22.92;;;;;;;1.85;88.42;100065.84;4502528;31;20167;-70
2022/04/21 01:15:24;;;;;;;33.10;21.70;;;;;;;1.93;87.21;100060.78;4502446;31;20091;-70
2022/04/21 01:17:52;;;;;;;39.78;24.55;;;;;;;1.81;89.20;100070.97;4502463;31;20422;-70
2022/04/21 01:20:21;;;;;;;42.13;25.08;;;;;;;1.86;90.14;100077.97;4502406;31;20490;-70
2022/04/21 01:22:48;;;;;;;41.55;25.52;;;;;;;2.03;88.80;100072.22;4502266;31;20415;-70
2022/04/21 01:25:16;;;;;;;46.03;26.90;;;;;;;2.26;87.46;100065.69;4502740;31;20143;-70
2022/04/21 01:27:45;;;;;;;41.88;25.73;;;;;;;2.35;86.44;100067.53;4502361;31;20100;-70
2022/04/21 01:30:13;;;;;;;42.75;26.85;;;;;;;2.37;84.96;100068.47;4502082;31;20087;-70
2022/04/21 01:32:42;;;;;;;39.78;25.58;;;;;;;2.37;84.71;100069.34;4502250;31;20101;-70
2022/04/21 01:35:11;;;;;;;45.97;25.77;;;;;;;2.28;84.91;100061.37;4502184;31;20147;-70
2022/04/21 01:43:12;;;;;;;55.38;27.02;;;;;;;2.20;83.41;100062.09;4502202;31;20083;-70
2022/04/21 01:45:39;;;;;;;36.72;23.73;;;;;;;2.10;84.83;100055.88;4502200;31;20118;-70
2022/04/21 01:48:06;;;;;;;44.55;26.45;;;;;;;2.16;83.58;100063.78;4502291;31;20130;-70
2022/04/21 01:50:34;;;;;;;44.50;25.98;;;;;;;2.15;83.39;100049.88;4501890;31;20100;-70
2022/04/21 01:53:01;;;;;;;43.70;26.50;;;;;;;2.09;83.72;100052.41;4502258;31;20486;-70
2022/04/21 01:55:28;;;;;;;42.15;26.20;;;;;;;2.01;84.46;100053.97;4502151;31;20127;-70
2022/04/21 01:57:55;;;;;;;43.20;26.17;;;;;;;1.83;85.67;100051.94;4502142;31;20123;-70
2022/04/21 02:00:23;;;;;;;44.47;26.95;;;;;;;1.91;84.90;100062.50;4502110;31;20514;-70
2022/04/21 02:02:51;;;;;;;45.20;26.60;;;;;;;1.96;86.46;100054.75;4502247;31;20107;-70
2022/04/21 02:05:19;;;;;;;39.47;25.08;;;;;;;1.91;86.06;100052.09;4502127;31;20505;-70
2022/04/21 02:07:46;;;;;;;49.58;25.98;;;;;;;2.02;85.11;100049.69;4502169;31;20548;-70
2022/04/21 02:10:15;;;;;;;42.60;26.23;;;;;;;1.82;87.09;100050.19;4502108;31;20581;-70
2022/04/21 02:12:45;;;;;;;45.25;25.90;;;;;;;1.61;88.88;100055.00;4502225;31;20113;-70
2022/04/21 02:15:13;;;;;;;41.15;25.10;;;;;;;1.42;89.40;100046.84;4502166;31;20084;-70
2022/04/21 02:17:41;;;;;;;43.65;26.50;;;;;;;1.35;89.80;100037.19;4502045;31;20474;-70
2022/04/21 02:20:09;;;;;;;40.67;25.58;;;;;;;1.42;89.49;100041.66;4501955;31;20099;-70
2022/04/21 02:22:37;;;;;;;38.92;25.37;;;;;;;1.44;89.16;100039.94;4502151;31;20107;-70
2022/04/21 02:25:06;;;;;;;37.60;23.00;;;;;;;1.50;89.18;100036.63;4502155;31;20179;-70
2022/04/21 02:27:35;;;;;;;38.88;23.30;;;;;;;1.46;89.63;100036.53;4502118;31;20095;-70
2022/04/21 02:30:07;;;;;;;38.78;24.23;;;;;;;1.36;90.27;100036.34;4501927;31;20107;-70
2022/04/21 02:32:36;;;;;;;43.90;25.05;;;;;;;1.26;90.64;100037.00;4502006;31;20132;-70
2022/04/21 02:35:04;;;;;;;43.75;24.83;;;;;;;1.27;92.97;100038.75;4501945;31;20092;-70
2022/04/21 02:37:39;;;;;;;41.70;24.87;;;;;;;1.44;90.93;100039.09;4502042;31;20129;-70
2022/04/21 02:40:09;;;;;;;36.53;24.23;;;;;;;1.54;89.28;100034.94;4501895;31;20530;-70
2022/04/21 02:42:40;;;;;;;42.00;23.85;;;;;;;1.58;88.34;100027.25;4502104;31;20439;-70
2022/04/21 02:45:09;;;;;;;40.30;24.85;;;;;;;1.55;88.36;100023.72;4501966;31;20138;-70
2022/04/21 02:47:38;;;;;;;36.17;24.25;;;;;;;1.37;89.89;100026.84;4501878;31;20419;-70
2022/04/21 02:50:06;;;;;;;53.25;26.45;;;;;;;1.19;90.48;100036.00;4501907;31;20199;-70
2022/04/21 02:52:35;;;;;;;40.00;25.27;;;;;;;1.11;91.72;100042.75;4501954;31;20144;-70
2022/04/21 02:57:50;;;;;;;37.90;23.67;;;;;;;1.29;91.84;100047.44;4501769;31;20099;-70
2022/04/21 03:00:17;;;;;;;40.00;24.65;;;;;;;1.42;89.54;100038.19;4501744;31;20087;-70
2022/04/21 03:02:44;;;;;;;41.60;25.10;;;;;;;1.49;88.32;100031.41;4500805;31;20145;-70
2022/04/21 03:05:12;;;;;;;36.83;24.33;;;;;;;1.47;88.45;100031.34;4501779;31;20114;-70
2022/04/21 03:07:39;;;;;;;39.55;25.75;;;;;;;1.36;89.99;100035.47;4501748;31;20239;-70
2022/04/21 03:10:07;;;;;;;49.20;25.90;;;;;;;1.30;90.35;100030.16;4501727;31;20168;-70
2022/04/21 03:12:34;;;;;;;46.85;25.83;;;;;;;1.17;91.68;100036.84;4501786;31;20214;-70
2022/04/21 03:15:02;;;;;;;43.05;27.15;;;;;;;0.99;93.49;100036.44;4501705;31;20104;-70
2022/04/21 03:17:29;;;;;;;41.17;23.75;;;;;;;0.85;94.13;100033.53;4501702;31;20125;-70
2022/04/21 03:19:56;;;;;;;38.47;24.70;;;;;;;0.72;95.09;100037.59;4501745;31;20138;-70
2022/04/21 03:25:10;;;;;;;44.25;24.40;;;;;;;0.75;95.97;100027.31;4501612;31;20147;-70
2022/04/21 03:27:37;;;;;;;35.20;22.85;;;;;;;0.83;94.84;100035.25;4501385;31;20099;-70
2022/04/21 03:30:06;;;;;;;39.28;23.60;;;;;;;0.77;94.62;100037.69;4501347;31;20115;-70
2022/04/21 03:32:35;;;;;;;39.38;23.27;;;;;;;0.91;94.70;100046.66;4501565;31;20526;-70
2022/04/21 03:35:03;;;;;;;35.92;22.67;;;;;;;1.03;94.15;100048.66;4501480;31;20155;-70
2022/04/21 03:37:30;;;;;;;42.22;25.50;;;;;;;1.04;92.79;100040.00;4501368;31;20104;-70
2022/04/21 03:39:57;;;;;;;42.83;25.60;;;;;;;0.98;93.74;100039.88;4501279;31;20459;-70
2022/04/21 03:42:31;;;;;;;41.25;25.37;;;;;;;0.98;93.23;100045.06;4501303;31;20075;-70
2022/04/21 03:45:02;;;;;;;39.15;25.12;;;;;;;0.81;93.41;100040.37;4510518;31;20118;-70
2022/04/21 03:47:29;;;;;;;42.72;27.75;;;;;;;0.71;94.32;100041.03;4517129;31;20096;-70
2022/04/21 03:49:56;;;;;;;41.10;26.98;;;;;;;0.61;95.91;100045.16;4517572;31;20115;-70
2022/04/21 03:52:24;;;;;;;42.65;26.00;;;;;;;0.77;95.26;100040.28;4518005;31;20150;-70
2022/04/21 03:54:51;;;;;;;46.78;26.98;;;;;;;0.76;96.07;100044.59;4517633;31;20088;-70
2022/04/21 03:57:18;;;;;;;50.03;27.17;;;;;;;0.88;95.87;100044.88;4517046;31;20167;-70
2022/04/21 03:59:45;;;;;;;43.65;27.98;;;;;;;0.89;96.03;100049.22;4517059;31;20159;-70
2022/04/21 04:02:13;;;;;;;41.37;26.92;;;;;;;0.98;95.37;100048.53;4511413;31;20094;-70
2022/04/21 04:04:40;;;;;;;54.63;28.33;;;;;;;0.98;94.89;100045.94;4509193;31;20079;-70
2022/04/21 04:12:42;;;;;;;47.22;28.55;;;;;;;0.93;95.26;100052.75;4501695;31;20459;-70
2022/04/21 04:15:10;;;;;;;47.17;27.10;;;;;;;0.91;95.71;100057.91;4501516;31;20151;-70
2022/04/21 04:17:38;;;;;;;46.65;25.45;;;;;;;0.95;95.97;100062.34;4501740;31;20459;-70
2022/04/21 04:20:06;;;;;;;51.63;25.42;;;;;;;0.97;96.23;100058.88;4504667;31;20486;-70
2022/04/21 04:22:40;;;;;;;45.10;27.58;;;;;;;1.07;95.20;100074.69;4517497;31;20134;-70
2022/04/21 04:25:09;;;;;;;49.20;27.55;;;;;;;1.33;94.87;100071.75;4517489;31;20084;-70
2022/04/21 04:27:37;;;;;;;42.80;26.25;;;;;;;1.57;93.15;100060.97;4516723;31;20080;-70
2022/04/21 04:30:06;;;;;;;46.17;26.10;;;;;;;1.62;93.16;100069.72;4501523;31;20107;-70
2022/04/21 04:32:34;;;;;;;43.40;29.23;;;;;;;1.71;93.69;100072.50;4516752;31;20526;-70
2022/04/21 04:35:02;;;;;;;41.20;25.23;;;;;;;1.89;92.20;100072.84;4516499;31;20110;-70
2022/04/21 04:37:29;;;;;;;40.30;24.17;;;;;;;2.14;90.73;100062.88;4516421;31;20127;-70
2022/04/21 04:39:59;;;;;;;37.85;23.00;;;;;;;2.23;90.29;100073.44;4516439;31;20149;-70
2022/04/21 04:42:28;;;;;;;39.03;22.92;;;;;;;2.35;89.97;100073.63;4501100;31;20078;-70
2022/04/21 04:47:41;;;;;;;42.47;24.33;;;;;;;2.75;87.32;100068.16;4516175;31;20932;-70
2022/04/21 04:50:09;;;;;;;39.28;23.12;;;;;;;2.82;86.62;100072.59;4516334;31;20121;-70
2022/04/21 04:52:37;;;;;;;38.80;23.58;;;;;;;2.95;85.53;100084.06;4516255;31;20099;-70
2022/04/21 04:55:09;;;;;;;42.95;24.55;;;;;;;3.00;85.44;100078.03;4516202;31;20139;-70
2022/04/21 04:57:36;;;;;;;62.28;29.40;;;;;;;3.15;83.44;100079.12;4491729;31;20468;-70
2022/04/21 05:00:04;;;;;;;49.88;26.75;;;;;;;3.32;83.10;100075.00;4500107;31;20450;-70
2022/04/21 05:02:31;;;;;;;49.35;26.30;;;;;;;3.39;83.29;100086.38;4499852;31;20080;-70
2022/04/21 05:04:58;;;;;;;38.10;24.25;;;;;;;3.40;82.60;100081.19;4500060;31;20469;-70
2022/04/21 05:07:26;;;;;;;43.63;25.12;;;;;;;3.48;82.37;100070.84;4500040;31;20591;-70
2022/04/21 05:09:54;;;;;;;92.82;40.05;;;;;;;3.70;82.32;100080.66;4499864;31;20431;-70
2022/04/21 05:12:21;;;;;;;96.87;43.65;;;;;;;4.02;79.11;100072.28;4499681;31;20110;-70
2022/04/21 05:14:52;;;;;;;96.53;42.97;;;;;;;4.27;78.00;100071.66;4499971;31;20103;-70
2022/04/21 05:17:19;;;;;;;154.23;60.30;;;;;;;4.40;78.41;100071.78;4499829;31;20150;-70
2022/04/21 05:20:07;;;;;;;100.78;46.30;;;;;;;4.57;77.64;100069.28;4499965;31;20100;-70
2022/04/21 05:22:39;;;;;;;61.45;29.80;;;;;;;4.71;76.16;100076.34;4499797;31;20106;-70
2022/04/21 05:25:10;;;;;;;49.92;24.50;;;;;;;4.89;76.01;100070.38;4499931;31;20111;-70
2022/04/21 05:27:38;;;;;;;56.58;26.67;;;;;;;5.09;75.14;100065.28;4509459;31;20591;-70
2022/04/21 05:32:56;;;;;;;75.07;34.03;;;;;;;5.34;73.98;100061.03;4501303;31;20079;-69
2022/04/21 05:35:23;;;;;;;61.47;27.30;;;;;;;5.41;75.15;100059.31;4501563;31;20091;-70
2022/04/21 05:37:51;;;;;;;51.05;24.75;;;;;;;5.46;74.62;100070.66;4501655;31;20604;-70
2022/04/21 05:40:19;;;;;;;40.20;22.45;;;;;;;5.46;73.67;100061.06;4501631;31;20510;-69
2022/04/21 05:42:49;;;;;;;35.83;21.85;;;;;;;5.45;73.62;100054.09;4508729;31;20121;-70
2022/04/21 05:45:17;;;;;;;35.72;21.80;;;;;;;5.46;72.85;100050.63;4509267;31;20091;-69
2022/04/21 05:47:46;;;;;;;36.60;21.23;;;;;;;5.55;71.91;100046.28;4510205;31;20158;-70
2022/04/21 05:50:14;;;;;;;36.38;20.23;;;;;;;5.69;71.97;100052.44;4509435;31;20108;-69
2022/04/21 05:52:43;;;;;;;36.40;19.87;;;;;;;5.93;70.83;100057.72;4508465;31;20130;-69
2022/04/21 05:55:12;;;;;;;35.30;19.75;;;;;;;6.10;69.74;100062.12;4507521;31;20117;-70
2022/04/21 05:57:40;;;;;;;50.70;20.42;;;;;;;6.36;69.57;100057.78;4504353;31;20163;-69
2022/04/21 06:00:08;;;;;;;37.53;19.60;;;;;;;6.58;68.55;100056.03;4501890;31;20130;-69
2022/04/21 06:02:38;;;;;;;32.63;19.50;;;;;;;6.73;67.18;100063.00;4501669;31;20469;-69
2022/04/21 06:05:05;;;;;;;34.08;19.48;;;;;;;6.87;67.29;100055.97;4504036;31;20138;-69
2022/04/21 06:07:33;;;;;;;33.47;18.42;;;;;;;6.98;66.13;100055.09;4501359;31;20107;-70
2022/04/21 06:10:00;;;;;;;35.10;18.00;;;;;;;7.13;65.74;100050.66;4500639;31;20168;-70
2022/04/21 06:12:27;;;;;;;29.55;18.17;;;;;;;7.32;65.89;100050.63;4500617;31;20079;-69
2022/04/21 06:14:54;;;;;;;33.35;17.08;;;;;;;7.43;64.13;100056.69;4500790;31;20100;-69
2022/04/21 06:17:22;;;;;;;32.13;16.02;;;;;;;7.53;63.91;100055.75;4501065;31;20111;-69
2022/04/21 06:19:49;;;;;;;33.70;15.32;;;;;;;7.76;62.11;100060.00;4501529;31;20463;-69
2022/04/21 06:22:16;;;;;;;30.37;14.93;;;;;;;7.85;62.02;100060.84;4501580;31;20483;-69
2022/04/21 06:24:43;;;;;;;34.95;15.88;;;;;;;7.95;61.25;100064.28;4501532;31;20152;-70
2022/04/21 06:27:11;;;;;;;22.65;14.63;;;;;;;8.19;60.27;100052.72;4501602;31;20096;-69
2022/04/21 06:29:38;;;;;;;22.80;13.95;;;;;;;8.28;60.76;100051.78;4501517;31;20096;-70
2022/04/21 06:32:05;;;;;;;22.37;12.90;;;;;;;8.35;59.79;100050.84;4500855;31;20113;-70
2022/04/21 06:34:33;;;;;;;21.40;13.23;;;;;;;8.55;59.20;100056.84;4500834;31;20455;-69
2022/04/21 06:37:00;;;;;;;22.45;13.07;;;;;;;8.69;58.64;100051.44;4501213;31;20131;-69
2022/04/21 06:39:27;;;;;;;24.23;13.43;;;;;;;8.88;58.34;100046.91;4501724;31;20126;-70
2022/04/21 06:41:55;;;;;;;22.48;13.40;;;;;;;8.91;58.03;100046.87;4502119;31;20141;-70
2022/04/21 06:49:54;;;;;;;20.98;13.23;;;;;;;9.28;58.45;100046.44;4501613;31;20126;-70
2022/04/21 06:52:21;;;;;;;25.67;13.88;;;;;;;9.44;57.17;100040.13;4501600;31;20071;-69
2022/04/21 06:54:48;;;;;;;29.12;12.30;;;;;;;9.64;56.73;100042.47;4501457;31;20095;-69
2022/04/21 06:57:15;;;;;;;25.05;13.07;;;;;;;9.87;56.55;100042.16;4501874;31;20181;-69
2022/04/21 06:59:43;;;;;;;27.62;14.25;;;;;;;9.97;56.90;100041.13;4501445;31;20087;-67
2022/04/21 07:02:10;;;;;;;21.75;12.10;;;;;;;10.02;56.29;100038.41;4501089;31;20079;-67
2022/04/21 07:04:37;;;;;;;17.77;10.45;;;;;;;10.11;56.51;100038.28;4501594;31;20087;-67
2022/04/21 07:07:05;;;;;;;16.60;10.13;;;;;;;10.22;55.96;100040.75;4501464;31;20123;-68
2022/04/21 07:09:32;;;;;;;24.58;10.68;;;;;;;10.32;55.49;100036.22;4501886;31;20894;-67
2022/04/21 07:11:59;;;;;;;22.83;10.57;;;;;;;10.46;58.22;100034.25;4501537;31;20417;-67
2022/04/21 07:14:27;;;;;;;14.75;9.43;;;;;;;10.61;54.99;100041.88;4501539;31;20516;-67
2022/04/21 07:16:58;;;;;;;23.02;11.65;;;;;;;10.80;55.43;100034.50;4501345;31;20104;-67
2022/04/21 07:19:25;;;;;;;14.07;9.00;;;;;;;10.90;55.22;100040.47;4501402;31;20103;-68
2022/04/21 07:21:52;;;;;;;17.42;8.75;;;;;;;11.10;53.71;100038.34;4501412;31;20126;-68
2022/04/21 07:24:19;;;;;;;14.15;8.63;;;;;;;11.23;52.82;100047.72;4501838;31;20192;-67
2022/04/21 07:26:47;;;;;;;10.32;7.00;;;;;;;11.40;53.42;100044.75;4501399;31;20150;-67
2022/04/21 07:29:14;;;;;;;14.07;6.80;;;;;;;11.75;49.24;100037.84;4501401;31;20100;-67
2022/04/21 07:31:41;;;;;;;7.93;6.53;;;;;;;11.71;48.42;100037.06;4500081;31;20091;-67
2022/04/21 07:34:09;;;;;;;11.93;6.78;;;;;;;11.75;49.93;100040.50;4501005;31;20091;-68
2022/04/21 07:36:37;;;;;;;12.85;7.15;;;;;;;11.95;49.91;100037.44;4501228;31;20084;-68
2022/04/21 07:39:05;;;;;;;10.63;6.62;;;;;;;12.20;48.70;100035.09;4501092;31;20104;-68
2022/04/21 07:41:32;;;;;;;7.80;6.40;;;;;;;12.16;48.86;100028.16;4500893;31;20071;-68
2022/04/21 07:44:00;;;;;;;9.85;6.72;;;;;;;12.19;48.17;100026.31;4501026;31;20503;-68
2022/04/21 07:46:27;;;;;;;9.90;6.72;;;;;;;12.43;47.69;100027.44;4501480;31;20095;-67
2022/04/21 07:51:40;;;;;;;4.25;3.28;;;;;;;12.62;44.59;100027.00;4501745;31;20181;-67
2022/04/21 07:54:07;;;;;;;5.47;3.75;;;;;;;12.69;43.99;100018.00;4501113;31;20088;-67
2022/04/21 07:56:35;;;;;;;3.35;3.05;;;;;;;12.69;42.83;100020.66;4501436;31;20096;-67
2022/04/21 07:59:02;;;;;;;3.90;3.20;;;;;;;12.78;42.90;100025.69;4501519;31;20731;-67
2022/04/21 08:01:30;;;;;;;4.93;3.47;;;;;;;12.75;41.57;100036.31;4486552;31;20092;-67
2022/04/21 08:04:02;;;;;;;4.35;3.22;;;;;;;12.78;41.68;100025.69;4501130;31;20155;-66
2022/04/21 08:06:29;;;;;;;4.35;3.53;;;;;;;12.53;40.66;100021.94;4501240;31;20719;-67
2022/04/21 08:08:56;;;;;;;6.25;3.75;;;;;;;12.66;42.50;100026.00;4501415;31;20104;-67
2022/04/21 08:11:23;;;;;;;6.12;3.60;;;;;;;12.77;42.05;100021.31;4501560;31;20745;-66
2022/04/21 08:13:50;;;;;;;9.30;4.37;;;;;;;12.96;41.01;100028.75;4486781;31;20096;-68
2022/04/21 08:16:18;;;;;;;4.68;4.15;;;;;;;13.08;41.85;100031.94;4501062;31;20095;-68
2022/04/21 08:18:52;;;;;;;7.07;4.12;;;;;;;13.30;41.28;100037.50;4500619;31;20122;-66
2022/04/21 08:21:19;;;;;;;8.00;5.93;;;;;;;13.35;41.85;100026.78;4501136;31;20360;-66
2022/04/21 08:33:04;;;;;;;11.02;5.90;;;;;;;13.36;43.79;100033.81;4500536;31;20749;-67
2022/04/21 08:35:31;;;;;;;9.57;5.50;;;;;;;13.55;44.09;100020.91;4501001;31;20084;-67
2022/04/21 08:37:58;;;;;;;11.85;5.45;;;;;;;13.86;43.25;100016.41;4500955;31;20096;-67
2022/04/21 08:40:27;;;;;;;14.27;5.18;;;;;;;14.15;42.96;100017.25;4500620;31;20179;-68
2022/04/21 08:42:55;;;;;;;6.18;4.43;;;;;;;14.28;42.13;100023.03;4500414;31;20079;-66
2022/04/21 08:45:23;;;;;;;5.30;4.00;;;;;;;14.14;40.68;100026.16;4500727;31;20083;-67
2022/04/21 08:47:58;;;;;;;5.25;4.03;;;;;;;13.91;39.76;100033.94;4500182;31;20100;-67
2022/04/21 08:50:26;;;;;;;4.30;3.90;;;;;;;13.71;39.98;100019.53;4500282;31;20108;-67
2022/04/21 08:52:54;;;;;;;6.62;4.70;;;;;;;13.67;39.23;100020.53;4500363;31;20114;-67
2022/04/21 08:55:22;;;;;;;9.82;3.42;;;;;;;13.86;38.89;100029.66;4500340;31;20087;-67
2022/04/21 08:57:49;;;;;;;5.32;3.40;;;;;;;13.75;39.14;100034.41;4500334;31;20126;-67
2022/04/21 09:00:17;;;;;;;3.80;3.40;;;;;;;13.66;39.20;100033.81;4500489;31;21023;-67
2022/04/21 09:02:45;;;;;;;3.90;3.50;;;;;;;13.78;38.96;100034.34;4502752;31;20458;-67
2022/04/21 09:05:13;;;;;;;4.80;4.20;;;;;;;14.16;37.63;100045.50;4502889;31;20213;-67
2022/04/21 09:07:48;;;;;;;5.07;3.70;;;;;;;14.24;37.04;100035.53;4502759;31;20123;-67
2022/04/21 09:10:35;;;;;;;8.00;4.05;;;;;;;14.25;38.66;100034.59;4502891;31;20187;-66
2022/04/21 09:13:03;;;;;;;4.07;3.65;;;;;;;14.41;39.07;100034.09;4503201;31;20099;-67
2022/04/21 09:15:32;;;;;;;6.75;3.58;;;;;;;14.75;36.71;100039.16;4502439;31;20100;-69
2022/04/21 09:18:08;;;;;;;5.35;3.12;;;;;;;15.11;35.05;100037.00;4502753;31;20088;-69
2022/04/21 09:20:36;;;;;;;5.53;3.57;;;;;;;15.31;35.59;100038.94;4502428;31;20191;-69
2022/04/21 09:23:06;;;;;;;8.65;4.32;;;;;;;15.34;35.14;100038.81;4501067;31;20526;-69
2022/04/21 09:25:49;;;;;;;4.40;3.87;;;;;;;15.78;35.67;100023.87;4501414;31;20100;-69
2022/04/21 09:28:26;;;;;;;5.03;3.92;;;;;;;15.57;35.73;100023.81;4502769;31;20114;-69
2022/04/21 09:30:56;;;;;;;3.28;2.97;;;;;;;15.01;34.96;100024.97;4504990;31;20399;-69
2022/04/21 09:33:28;;;;;;;3.58;3.33;;;;;;;14.94;36.41;100034.06;4514345;31;20114;-69
2022/04/21 09:35:56;;;;;;;6.57;3.97;;;;;;;14.96;34.48;100034.91;4509790;31;20103;-69
2022/04/21 09:38:24;;;;;;;7.57;4.60;;;;;;;14.57;37.72;100030.06;4501950;31;20107;-69
2022/04/21 09:40:51;;;;;;;8.00;3.97;;;;;;;15.20;37.87;100034.00;4510505;31;20138;-69
2022/04/21 09:43:29;;;;;;;5.03;4.12;;;;;;;15.77;36.39;100022.16;4508539;31;20083;-69
2022/04/21 09:46:17;;;;;;;4.50;4.07;;;;;;;15.87;34.29;100025.31;4511053;31;20155;-69
2022/04/21 09:48:45;;;;;;;;;;;;;;;16.24;34.44;100022.03;4514756;31;20103;-69
2022/04/21 09:51:16;;;;;;;4.55;4.15;;;;;;;16.08;34.18;100020.94;4502480;31;20422;-69
2022/04/21 09:54:04;;;;;;;3.83;3.53;;;;;;;15.95;35.52;100017.03;4514398;31;20960;-69
2022/04/21 09:56:34;;;;;;;7.85;4.30;;;;;;;15.95;33.22;100017.03;4516302;31;20163;-69
2022/04/21 09:59:07;;;;;;;5.03;4.28;;;;;;;15.61;33.97;100020.09;4502601;31;20092;-68
2022/04/21 10:01:41;;;;;;;4.60;4.20;;;;;;;15.41;34.86;100026.19;4506727;31;20536;-69
2022/04/21 10:04:11;;;;;;;4.05;3.75;;;;;;;15.47;35.79;100010.00;4510797;31;20107;-69
2022/04/21 10:06:39;;;;;;;4.25;3.85;;;;;;;16.11;35.21;100002.19;4512807;31;20703;-69
2022/04/21 10:09:07;;;;;;;8.93;4.50;;;;;;;16.24;36.20;99999.91;4504530;31;20117;-69
2022/04/21 10:11:38;;;;;;;7.93;4.20;;;;;;;16.91;34.64;100001.50;4518302;31;20394;-69
2022/04/21 10:14:06;;;;;;;3.85;3.45;;;;;;;17.41;32.10;99999.22;4508050;31;20711;-69
2022/04/21 10:16:34;;;;;;;4.75;3.80;;;;;;;17.59;31.65;99993.97;4502607;31;20088;-69
2022/04/21 10:19:02;;;;;;;6.25;3.95;;;;;;;17.85;31.61;99996.31;4502551;31;20169;-69
2022/04/21 10:21:48;;;;;;;4.60;4.18;;;;;;;17.55;30.95;99997.72;4487660;31;20112;-69
2022/04/21 10:24:25;;;;;;;3.20;3.00;;;;;;;17.19;31.22;100001.16;4509390;31;20108;-69
2022/04/21 10:26:53;;;;;;;5.43;4.07;;;;;;;17.60;30.97;99999.25;4512800;31;20091;-70
2022/04/21 10:29:23;;;;;;;8.75;3.90;;;;;;;18.09;30.55;99988.03;4513363;31;20174;-69
2022/04/21 10:31:58;;;;;;;4.32;3.65;;;;;;;18.47;30.24;99991.47;4506013;31;20481;-70
2022/04/21 10:34:45;;;;;;;7.12;4.07;;;;;;;18.76;29.81;99998.03;4510604;31;20088;-69
2022/04/21 10:37:17;;;;;;;5.55;4.55;;;;;;;18.11;30.25;99991.50;4516479;31;20107;-70
2022/04/21 10:40:10;;;;;;;6.75;4.28;;;;;;;18.06;32.78;99986.41;4518378;31;20084;-69
2022/04/21 10:42:52;;;;;;;7.15;3.90;;;;;;;18.56;30.98;99983.00;4515443;31;20091;-69
2022/04/21 10:45:26;;;;;;;3.60;3.25;;;;;;;18.70;32.64;99974.28;4508624;31;20126;-69
2022/04/21 10:48:12;;;;;;;4.22;3.83;;;;;;;18.83;31.65;99980.75;4501724;31;20147;-69
2022/04/21 10:50:44;;;;;;;4.90;4.43;;;;;;;17.74;31.91;99974.62;4501934;31;20084;-68
2022/04/21 10:59:07;;;;;;;4.50;4.10;;;;;;;19.17;29.23;99973.59;4508187;31;20099;-69
2022/04/21 11:01:35;;;;;;;3.70;3.40;;;;;;;18.70;30.24;99966.28;4510106;31;20490;-68
2022/04/21 11:04:19;;;;;;;7.15;4.00;;;;;;;19.27;31.45;99956.13;4509110;31;20150;-68
2022/04/21 11:07:11;;;;;;;4.00;3.70;;;;;;;19.44;28.62;99954.38;4505419;31;20832;-69
2022/04/21 11:09:40;;;;;;;8.35;3.62;;;;;;;19.22;30.19;99954.66;4510831;31;20091;-69
2022/04/21 11:12:46;;;;;;;5.70;3.42;;;;;;;18.60;31.40;99957.88;4512374;31;20118;-69
2022/04/21 11:15:49;;;;;;;4.40;3.47;;;;;;;19.56;30.61;99948.31;4509893;31;20125;-69
2022/04/21 11:18:30;;;;;;;4.55;3.90;;;;;;;20.46;28.94;99951.16;4508936;31;20472;-69
2022/04/21 11:21:27;;;;;;;4.20;3.78;;;;;;;21.73;27.15;99950.44;4509910;31;20155;-69
2022/04/21 11:23:54;;;;;;;4.70;4.30;;;;;;;22.34;24.31;99950.94;4511798;31;20130;-70
2022/04/21 11:26:30;;;;;;;4.22;3.83;;;;;;;22.40;25.49;99951.38;4509344;31;20509;-68
2022/04/21 11:29:03;;;;;;;3.80;3.40;;;;;;;23.96;24.25;99943.94;4502679;31;20210;-68
2022/04/21 11:31:30;;;;;;;4.47;3.80;;;;;;;23.85;22.96;99932.19;4500603;31;20110;-68
2022/04/21 11:34:02;;;;;;;4.90;3.80;;;;;;;24.20;22.29;99938.56;4507208;31;20117;-68
2022/04/21 11:36:37;;;;;;;7.93;3.78;;;;;;;23.36;22.46;99933.03;4516749;31;20139;-68
2022/04/21 11:39:06;;;;;;;3.55;3.28;;;;;;;24.11;22.03;99936.56;4517444;31;20166;-68
2022/04/21 11:41:34;;;;;;;7.50;4.07;;;;;;;25.31;21.15;99931.75;4517989;31;20091;-68
2022/04/21 11:44:01;;;;;;;4.57;3.85;;;;;;;25.96;21.58;99936.28;4515081;31;20125;-68
2022/04/21 11:46:29;;;;;;;8.20;4.62;;;;;;;25.94;21.90;99927.47;4500677;31;20095;-68
2022/04/21 11:49:03;;;;;;;4.60;4.20;;;;;;;26.65;19.56;99927.78;4503976;31;20475;-68
2022/04/21 11:51:31;;;;;;;4.93;4.40;;;;;;;25.73;19.86;99921.97;4508749;31;20179;-68
2022/04/21 11:54:06;;;;;;;11.18;4.80;;;;;;;25.00;21.88;99919.81;4510878;31;20087;-68
2022/04/21 11:56:34;;;;;;;11.27;4.65;;;;;;;26.98;20.60;99925.00;4514405;31;20091;-68
2022/04/21 11:59:06;;;;;;;5.65;4.43;;;;;;;27.87;21.00;99916.06;4503151;31;20087;-68
2022/04/21 12:07:15;;;;;;;4.25;3.90;;;;;;;26.10;20.07;99913.53;4517477;31;20916;-68
2022/04/21 12:09:46;;;;;;;6.63;4.10;;;;;;;26.15;20.53;99919.44;4508427;31;20137;-68
2022/04/21 12:12:15;;;;;;;4.28;3.87;;;;;;;28.32;19.33;99904.69;4500382;31;20201;-68
2022/04/21 12:14:43;;;;;;;5.05;3.30;;;;;;;27.82;19.09;99899.41;4501509;31;20136;-69
2022/04/21 12:17:11;;;;;;;3.37;3.05;;;;;;;27.31;19.94;99892.25;4505827;31;20100;-68
2022/04/21 12:19:45;;;;;;;5.55;3.15;;;;;;;27.46;18.08;99890.06;4500176;31;20083;-69
2022/04/21 12:22:18;;;;;;;6.28;3.37;;;;;;;26.58;18.91;99898.72;4499121;31;20133;-69
2022/04/21 12:24:45;;;;;;;7.47;4.03;;;;;;;26.87;18.46;99893.47;4498974;31;20084;-69
2022/04/21 12:27:18;;;;;;;4.05;3.40;;;;;;;26.17;19.61;99893.13;4504528;31;20487;-70